sensor_id;sensor_type;location;lat;lon;timestamp;pressure;altitude;pressure_sealevel;temperature;humidity
67109;BME280;54027;50.786;7.058;2023-05-23T00:01:17;101188.53;;;17.13;81.56
67109;BME280;54027;50.786;7.058;2023-05-23T00:03:42;101193.03;;;17.09;81.53
67109;BME280;54027;50.786;7.058;2023-05-23T00:06:08;101200.97;;;17.05;81.56
67109;BME280;54027;50.786;7.058;2023-05-23T00:08:34;101198.41;;;17.03;81.06
67109;BME280;54027;50.786;7.058;2023-05-23T00:10:59;101201.13;;;17.00;81.12
67109;BME280;54027;50.786;7.058;2023-05-23T00:13:25;101213.41;;;16.95;81.15
67109;BME280;54027;50.786;7.058;2023-05-23T00:15:51;101211.81;;;16.91;81.12
67109;BME280;54027;50.786;7.058;2023-05-23T00:18:17;101211.84;;;16.90;81.33
67109;BME280;54027;50.786;7.058;2023-05-23T00:20:42;101210.22;;;16.85;81.03
67109;BME280;54027;50.786;7.058;2023-05-23T00:23:09;101207.72;;;16.81;81.29
67109;BME280;54027;50.786;7.058;2023-05-23T00:25:35;101217.44;;;16.74;81.40
67109;BME280;54027;50.786;7.058;2023-05-23T00:28:02;101213.28;;;16.67;81.55
67109;BME280;54027;50.786;7.058;2023-05-23T00:30:29;101209.97;;;16.61;81.70
67109;BME280;54027;50.786;7.058;2023-05-23T00:32:55;101208.41;;;16.54;81.89
67109;BME280;54027;50.786;7.058;2023-05-23T00:35:21;101207.66;;;16.50;82.25
67109;BME280;54027;50.786;7.058;2023-05-23T00:37:48;101208.69;;;16.43;82.35
67109;BME280;54027;50.786;7.058;2023-05-23T00:40:20;101203.56;;;16.39;82.84
67109;BME280;54027;50.786;7.058;2023-05-23T00:42:46;101206.25;;;16.37;82.28
67109;BME280;54027;50.786;7.058;2023-05-23T00:45:12;101208.94;;;16.32;82.56
67109;BME280;54027;50.786;7.058;2023-05-23T00:47:41;101209.00;;;16.31;82.44
67109;BME280;54027;50.786;7.058;2023-05-23T00:50:10;101210.88;;;16.26;82.92
67109;BME280;54027;50.786;7.058;2023-05-23T00:52:36;101211.75;;;16.25;83.09
67109;BME280;54027;50.786;7.058;2023-05-23T00:55:03;101209.28;;;16.20;83.22
67109;BME280;54027;50.786;7.058;2023-05-23T00:57:29;101215.44;;;16.16;83.24
67109;BME280;54027;50.786;7.058;2023-05-23T00:59:54;101210.25;;;16.15;83.91
67109;BME280;54027;50.786;7.058;2023-05-23T01:02:20;101213.78;;;16.14;83.80
67109;BME280;54027;50.786;7.058;2023-05-23T01:04:48;101214.72;;;16.10;83.57
67109;BME280;54027;50.786;7.058;2023-05-23T01:07:18;101211.16;;;16.14;82.88
67109;BME280;54027;50.786;7.058;2023-05-23T01:09:44;101199.88;;;16.13;82.43
67109;BME280;54027;50.786;7.058;2023-05-23T01:17:20;101207.06;;;16.04;83.00
67109;BME280;54027;50.786;7.058;2023-05-23T01:19:58;101207.09;;;16.02;83.53
67109;BME280;54027;50.786;7.058;2023-05-23T01:22:37;101220.94;;;16.04;83.23
67109;BME280;54027;50.786;7.058;2023-05-23T01:25:29;101210.41;;;16.09;82.98
67109;BME280;54027;50.786;7.058;2023-05-23T01:28:01;101213.78;;;16.14;82.99
67109;BME280;54027;50.786;7.058;2023-05-23T01:30:30;101214.50;;;16.20;83.02
67109;BME280;54027;50.786;7.058;2023-05-23T01:32:57;101217.78;;;16.27;82.41
67109;BME280;54027;50.786;7.058;2023-05-23T01:35:24;101212.41;;;16.33;81.43
67109;BME280;54027;50.786;7.058;2023-05-23T01:37:52;101211.31;;;16.43;80.51
67109;BME280;54027;50.786;7.058;2023-05-23T01:40:18;101210.25;;;16.50;80.29
67109;BME280;54027;50.786;7.058;2023-05-23T01:42:43;101209.31;;;16.53;80.26
67109;BME280;54027;50.786;7.058;2023-05-23T01:45:09;101213.63;;;16.54;80.19
67109;BME280;54027;50.786;7.058;2023-05-23T01:47:36;101212.69;;;16.56;79.99
67109;BME280;54027;50.786;7.058;2023-05-23T01:50:02;101209.25;;;16.56;80.67
67109;BME280;54027;50.786;7.058;2023-05-23T01:52:28;101218.78;;;16.57;80.82
67109;BME280;54027;50.786;7.058;2023-05-23T01:54:54;101216.13;;;16.58;81.25
67109;BME280;54027;50.786;7.058;2023-05-23T01:57:21;101215.28;;;16.58;80.70
67109;BME280;54027;50.786;7.058;2023-05-23T01:59:46;101217.88;;;16.58;81.04
67109;BME280;54027;50.786;7.058;2023-05-23T02:02:12;101221.34;;;16.58;80.88
67109;BME280;54027;50.786;7.058;2023-05-23T02:04:37;101216.94;;;16.60;80.87
67109;BME280;54027;50.786;7.058;2023-05-23T02:07:03;101224.81;;;16.59;81.34
67109;BME280;54027;50.786;7.058;2023-05-23T02:09:28;101223.09;;;16.58;80.87
67109;BME280;54027;50.786;7.058;2023-05-23T02:11:53;101224.91;;;16.56;81.04
67109;BME280;54027;50.786;7.058;2023-05-23T02:14:20;101219.72;;;16.54;80.49
67109;BME280;54027;50.786;7.058;2023-05-23T02:16:45;101223.25;;;16.52;79.72
67109;BME280;54027;50.786;7.058;2023-05-23T02:19:10;101222.41;;;16.51;78.70
67109;BME280;54027;50.786;7.058;2023-05-23T02:21:36;101232.09;;;16.46;78.67
67109;BME280;54027;50.786;7.058;2023-05-23T02:24:02;101236.50;;;16.44;78.44
67109;BME280;54027;50.786;7.058;2023-05-23T02:26:27;101237.47;;;16.40;77.74
67109;BME280;54027;50.786;7.058;2023-05-23T02:28:53;101245.38;;;16.37;77.86
67109;BME280;54027;50.786;7.058;2023-05-23T02:31:19;101246.34;;;16.33;77.36
67109;BME280;54027;50.786;7.058;2023-05-23T02:33:44;101251.59;;;16.31;77.61
67109;BME280;54027;50.786;7.058;2023-05-23T02:36:10;101235.22;;;16.26;76.77
67109;BME280;54027;50.786;7.058;2023-05-23T02:38:35;101250.03;;;16.24;77.30
67109;BME280;54027;50.786;7.058;2023-05-23T02:41:00;101250.94;;;16.23;76.48
67109;BME280;54027;50.786;7.058;2023-05-23T02:43:26;101252.69;;;16.23;76.53
67109;BME280;54027;50.786;7.058;2023-05-23T02:45:52;101255.31;;;16.21;76.51
67109;BME280;54027;50.786;7.058;2023-05-23T02:48:17;101248.41;;;16.20;76.79
67109;BME280;54027;50.786;7.058;2023-05-23T02:50:42;101251.88;;;16.19;76.55
67109;BME280;54027;50.786;7.058;2023-05-23T02:53:08;101251.00;;;16.20;76.87
67109;BME280;54027;50.786;7.058;2023-05-23T02:55:33;101254.44;;;16.21;77.17
67109;BME280;54027;50.786;7.058;2023-05-23T02:57:58;101266.59;;;16.22;77.27
67109;BME280;54027;50.786;7.058;2023-05-23T03:00:24;101247.47;;;16.21;76.53
67109;BME280;54027;50.786;7.058;2023-05-23T03:02:50;101261.38;;;16.22;76.51
67109;BME280;54027;50.786;7.058;2023-05-23T03:05:15;101261.38;;;16.22;76.79
67109;BME280;54027;50.786;7.058;2023-05-23T03:07:41;101254.44;;;16.21;76.64
67109;BME280;54027;50.786;7.058;2023-05-23T03:10:07;101253.56;;;16.22;76.74
67109;BME280;54027;50.786;7.058;2023-05-23T03:12:32;101250.97;;;16.22;76.94
67109;BME280;54027;50.786;7.058;2023-05-23T03:14:57;101251.81;;;16.22;76.77
67109;BME280;54027;50.786;7.058;2023-05-23T03:17:24;101255.28;;;16.23;77.00
67109;BME280;54027;50.786;7.058;2023-05-23T03:19:50;101258.78;;;16.22;77.31
67109;BME280;54027;50.786;7.058;2023-05-23T03:22:15;101261.38;;;16.22;77.57
67109;BME280;54027;50.786;7.058;2023-05-23T03:24:41;101266.59;;;16.22;77.54
67109;BME280;54027;50.786;7.058;2023-05-23T03:27:07;101257.03;;;16.22;77.21
67109;BME280;54027;50.786;7.058;2023-05-23T03:29:32;101252.69;;;16.21;77.04
67109;BME280;54027;50.786;7.058;2023-05-23T03:31:58;101264.06;;;16.20;76.95
67109;BME280;54027;50.786;7.058;2023-05-23T03:34:23;101271.81;;;16.22;77.32
67109;BME280;54027;50.786;7.058;2023-05-23T03:36:51;101270.97;;;16.21;77.49
67109;BME280;54027;50.786;7.058;2023-05-23T03:39:16;101270.09;;;16.21;76.95
67109;BME280;54027;50.786;7.058;2023-05-23T03:41:41;101275.31;;;16.21;76.85
67109;BME280;54027;50.786;7.058;2023-05-23T03:44:07;101276.22;;;16.20;77.32
67109;BME280;54027;50.786;7.058;2023-05-23T03:46:32;101291.91;;;16.18;77.36
67109;BME280;54027;50.786;7.058;2023-05-23T03:48:58;101285.00;;;16.16;77.94
67109;BME280;54027;50.786;7.058;2023-05-23T03:51:23;101289.44;;;16.12;79.14
67109;BME280;54027;50.786;7.058;2023-05-23T03:53:49;101288.69;;;16.07;78.67
67109;BME280;54027;50.786;7.058;2023-05-23T03:56:14;101292.22;;;16.05;79.42
67109;BME280;54027;50.786;7.058;2023-05-23T03:58:39;101295.84;;;15.99;79.94
67109;BME280;54027;50.786;7.058;2023-05-23T04:01:05;101292.44;;;15.96;80.48
67109;BME280;54027;50.786;7.058;2023-05-23T04:03:31;101301.25;;;15.90;81.32
67109;BME280;54027;50.786;7.058;2023-05-23T04:06:00;101302.31;;;15.80;82.89
67109;BME280;54027;50.786;7.058;2023-05-23T04:08:26;101306.91;;;15.69;83.80
67109;BME280;54027;50.786;7.058;2023-05-23T04:10:51;101314.88;;;15.58;84.74
67109;BME280;54027;50.786;7.058;2023-05-23T04:13:17;101308.97;;;15.52;85.24
67109;BME280;54027;50.786;7.058;2023-05-23T04:15:42;101311.69;;;15.46;85.55
67109;BME280;54027;50.786;7.058;2023-05-23T04:18:09;101314.31;;;15.44;85.65
67109;BME280;54027;50.786;7.058;2023-05-23T04:20:34;101316.09;;;15.42;86.57
67109;BME280;54027;50.786;7.058;2023-05-23T04:22:59;101317.81;;;15.43;86.82
67109;BME280;54027;50.786;7.058;2023-05-23T04:25:25;101316.91;;;15.44;86.87
67109;BME280;54027;50.786;7.058;2023-05-23T04:27:51;101307.41;;;15.42;87.38
67109;BME280;54027;50.786;7.058;2023-05-23T04:30:18;101322.19;;;15.41;87.77
67109;BME280;54027;50.786;7.058;2023-05-23T04:32:44;101318.81;;;15.36;87.96
67109;BME280;54027;50.786;7.058;2023-05-23T04:35:10;101317.94;;;15.37;88.16
67109;BME280;54027;50.786;7.058;2023-05-23T04:37:36;101319.69;;;15.37;88.44
67109;BME280;54027;50.786;7.058;2023-05-23T04:40:02;101325.78;;;15.36;88.73
67109;BME280;54027;50.786;7.058;2023-05-23T04:42:28;101321.47;;;15.33;88.75
67109;BME280;54027;50.786;7.058;2023-05-23T04:44:53;101325.81;;;15.33;88.22
67109;BME280;54027;50.786;7.058;2023-05-23T04:47:21;101323.28;;;15.30;88.38
67109;BME280;54027;50.786;7.058;2023-05-23T04:49:48;101325.00;;;15.31;88.05
67109;BME280;54027;50.786;7.058;2023-05-23T04:52:14;101324.09;;;15.33;87.87
67109;BME280;54027;50.786;7.058;2023-05-23T04:54:39;101322.31;;;15.35;87.29
67109;BME280;54027;50.786;7.058;2023-05-23T04:57:09;101324.84;;;15.40;86.68
67109;BME280;54027;50.786;7.058;2023-05-23T04:59:34;101325.59;;;15.46;84.88
67109;BME280;54027;50.786;7.058;2023-05-23T05:02:00;101321.09;;;15.53;83.93
67109;BME280;54027;50.786;7.058;2023-05-23T05:04:25;101323.53;;;15.63;82.82
67109;BME280;54027;50.786;7.058;2023-05-23T05:06:50;101331.22;;;15.69;82.41
67109;BME280;54027;50.786;7.058;2023-05-23T05:09:17;101322.47;;;15.72;81.66
67109;BME280;54027;50.786;7.058;2023-05-23T05:11:42;101325.03;;;15.75;81.87
67109;BME280;54027;50.786;7.058;2023-05-23T05:14:08;101324.97;;;15.76;82.36
67109;BME280;54027;50.786;7.058;2023-05-23T05:16:33;101327.63;;;15.75;82.29
67109;BME280;54027;50.786;7.058;2023-05-23T05:18:58;101335.41;;;15.76;82.11
67109;BME280;54027;50.786;7.058;2023-05-23T05:21:24;101328.50;;;15.75;83.00
67109;BME280;54027;50.786;7.058;2023-05-23T05:23:49;101338.91;;;15.75;83.56
67109;BME280;54027;50.786;7.058;2023-05-23T05:26:15;101338.06;;;15.73;83.63
67109;BME280;54027;50.786;7.058;2023-05-23T05:28:41;101341.66;;;15.69;84.16
67109;BME280;54027;50.786;7.058;2023-05-23T05:31:06;101343.38;;;15.69;84.53
67109;BME280;54027;50.786;7.058;2023-05-23T05:33:32;101341.66;;;15.69;84.01
67109;BME280;54027;50.786;7.058;2023-05-23T05:36:03;101352.09;;;15.68;84.72
67109;BME280;54027;50.786;7.058;2023-05-23T05:38:28;101354.75;;;15.66;84.85
67109;BME280;54027;50.786;7.058;2023-05-23T05:40:54;101354.75;;;15.65;84.98
67109;BME280;54027;50.786;7.058;2023-05-23T05:43:19;101351.22;;;15.67;85.27
67109;BME280;54027;50.786;7.058;2023-05-23T05:45:45;101357.28;;;15.69;84.82
67109;BME280;54027;50.786;7.058;2023-05-23T05:48:11;101355.53;;;15.70;84.19
67109;BME280;54027;50.786;7.058;2023-05-23T05:50:36;101357.22;;;15.72;84.10
67109;BME280;54027;50.786;7.058;2023-05-23T05:53:01;101360.59;;;15.78;83.75
67109;BME280;54027;50.786;7.058;2023-05-23T05:55:28;101359.66;;;15.82;82.72
67109;BME280;54027;50.786;7.058;2023-05-23T05:57:53;101357.75;;;15.88;82.74
67109;BME280;54027;50.786;7.058;2023-05-23T06:00:19;101352.47;;;15.91;81.39
67109;BME280;54027;50.786;7.058;2023-05-23T06:02:45;101364.50;;;15.98;81.07
67109;BME280;54027;50.786;7.058;2023-05-23T06:05:15;101361.94;;;15.97;81.40
67109;BME280;54027;50.786;7.058;2023-05-23T06:07:46;101354.94;;;15.97;81.07
67109;BME280;54027;50.786;7.058;2023-05-23T06:10:12;101369.78;;;15.97;81.27
67109;BME280;54027;50.786;7.058;2023-05-23T06:12:38;101369.78;;;15.97;81.39
67109;BME280;54027;50.786;7.058;2023-05-23T06:15:05;101366.28;;;15.96;81.68
67109;BME280;54027;50.786;7.058;2023-05-23T06:17:30;101378.47;;;15.96;80.89
67109;BME280;54027;50.786;7.058;2023-05-23T06:19:55;101381.09;;;15.94;81.66
67109;BME280;54027;50.786;7.058;2023-05-23T06:22:21;101381.19;;;15.90;81.59
67109;BME280;54027;50.786;7.058;2023-05-23T06:24:46;101383.00;;;15.86;82.04
67109;BME280;54027;50.786;7.058;2023-05-23T06:27:11;101385.66;;;15.85;82.18
67109;BME280;54027;50.786;7.058;2023-05-23T06:29:37;101382.19;;;15.84;81.75
67109;BME280;54027;50.786;7.058;2023-05-23T06:32:03;101381.34;;;15.82;82.16
67109;BME280;54027;50.786;7.058;2023-05-23T06:34:29;101392.63;;;15.84;82.05
67109;BME280;54027;50.786;7.058;2023-05-23T06:36:54;101376.94;;;15.86;82.10
67109;BME280;54027;50.786;7.058;2023-05-23T06:39:20;101393.56;;;15.80;81.79
67109;BME280;54027;50.786;7.058;2023-05-23T06:41:46;101388.44;;;15.75;82.27
67109;BME280;54027;50.786;7.058;2023-05-23T06:44:11;101385.78;;;15.79;82.16
67109;BME280;54027;50.786;7.058;2023-05-23T06:46:36;101393.59;;;15.79;82.71
67109;BME280;54027;50.786;7.058;2023-05-23T06:49:02;101397.03;;;15.81;82.30
67109;BME280;54027;50.786;7.058;2023-05-23T06:51:27;101397.03;;;15.79;82.34
67109;BME280;54027;50.786;7.058;2023-05-23T06:53:52;101403.00;;;15.86;82.16
67109;BME280;54027;50.786;7.058;2023-05-23T06:56:21;101400.38;;;15.87;81.89
67109;BME280;54027;50.786;7.058;2023-05-23T06:58:46;101399.31;;;15.96;81.91
67109;BME280;54027;50.786;7.058;2023-05-23T07:01:11;101403.50;;;16.03;81.30
67109;BME280;54027;50.786;7.058;2023-05-23T07:03:37;101393.16;;;16.00;81.02
67109;BME280;54027;50.786;7.058;2023-05-23T07:06:06;101399.22;;;16.00;80.90
67109;BME280;54027;50.786;7.058;2023-05-23T07:08:31;101403.63;;;15.98;81.33
67109;BME280;54027;50.786;7.058;2023-05-23T07:10:57;101408.00;;;15.96;80.90
67109;BME280;54027;50.786;7.058;2023-05-23T07:13:22;101414.97;;;15.94;80.79
67109;BME280;54027;50.786;7.058;2023-05-23T07:15:47;101415.91;;;15.93;81.67
67109;BME280;54027;50.786;7.058;2023-05-23T07:18:13;101402.81;;;15.95;81.29
67109;BME280;54027;50.786;7.058;2023-05-23T07:20:38;101402.81;;;15.95;81.08
67109;BME280;54027;50.786;7.058;2023-05-23T07:23:03;101414.03;;;15.98;81.28
67109;BME280;54027;50.786;7.058;2023-05-23T07:25:29;101411.50;;;15.97;81.03
67109;BME280;54027;50.786;7.058;2023-05-23T07:27:54;101407.03;;;16.02;80.40
67109;BME280;54027;50.786;7.058;2023-05-23T07:30:20;101413.88;;;16.06;79.79
67109;BME280;54027;50.786;7.058;2023-05-23T07:32:47;101402.44;;;16.14;79.11
67109;BME280;54027;50.786;7.058;2023-05-23T07:35:13;101399.25;;;16.40;78.06
67109;BME280;54027;50.786;7.058;2023-05-23T07:37:39;101394.34;;;16.63;77.53
67109;BME280;54027;50.786;7.058;2023-05-23T07:40:05;101386.25;;;16.75;76.75
67109;BME280;54027;50.786;7.058;2023-05-23T07:42:30;101393.88;;;16.84;76.40
67109;BME280;54027;50.786;7.058;2023-05-23T07:44:55;101381.63;;;16.86;74.97
67109;BME280;54027;50.786;7.058;2023-05-23T07:47:21;101390.38;;;16.85;75.52
67109;BME280;54027;50.786;7.058;2023-05-23T07:49:48;101400.00;;;16.83;75.98
67109;BME280;54027;50.786;7.058;2023-05-23T07:52:16;101396.56;;;16.81;75.10
67109;BME280;54027;50.786;7.058;2023-05-23T07:54:41;101400.22;;;16.73;74.82
67109;BME280;54027;50.786;7.058;2023-05-23T07:57:07;101407.31;;;16.68;75.23
67109;BME280;54027;50.786;7.058;2023-05-23T07:59:33;101409.84;;;16.71;75.17
67109;BME280;54027;50.786;7.058;2023-05-23T08:01:59;101419.56;;;16.64;75.92
67109;BME280;54027;50.786;7.058;2023-05-23T08:04:24;101425.13;;;16.49;76.53
67109;BME280;54027;50.786;7.058;2023-05-23T08:06:50;101434.91;;;16.40;77.07
67109;BME280;54027;50.786;7.058;2023-05-23T08:09:15;101434.88;;;16.41;77.32
67109;BME280;54027;50.786;7.058;2023-05-23T08:11:41;101428.59;;;16.50;76.35
67109;BME280;54027;50.786;7.058;2023-05-23T08:14:06;101427.41;;;16.64;76.39
67109;BME280;54027;50.786;7.058;2023-05-23T08:16:33;101434.47;;;16.59;76.17
67109;BME280;54027;50.786;7.058;2023-05-23T08:18:59;101430.97;;;16.60;75.85
67109;BME280;54027;50.786;7.058;2023-05-23T08:21:24;101450.19;;;16.56;76.54
67109;BME280;54027;50.786;7.058;2023-05-23T08:23:49;101441.34;;;16.63;76.10
67109;BME280;54027;50.786;7.058;2023-05-23T08:26:15;101442.16;;;16.65;76.18
67109;BME280;54027;50.786;7.058;2023-05-23T08:28:40;101443.81;;;16.69;76.00
67109;BME280;54027;50.786;7.058;2023-05-23T08:31:06;101450.16;;;16.58;76.11
67109;BME280;54027;50.786;7.058;2023-05-23T08:33:31;101459.13;;;16.46;76.72
67109;BME280;54027;50.786;7.058;2023-05-23T08:35:57;101459.25;;;16.40;77.00
67109;BME280;54027;50.786;7.058;2023-05-23T08:38:22;101459.38;;;16.34;77.23
67109;BME280;54027;50.786;7.058;2023-05-23T08:40:51;101465.59;;;16.28;76.87
67109;BME280;54027;50.786;7.058;2023-05-23T08:43:17;101463.13;;;16.21;76.84
67109;BME280;54027;50.786;7.058;2023-05-23T08:45:44;101468.25;;;16.25;77.12
67109;BME280;54027;50.786;7.058;2023-05-23T08:48:12;101463.97;;;16.21;76.71
67109;BME280;54027;50.786;7.058;2023-05-23T08:50:41;101470.06;;;16.22;76.62
67109;BME280;54027;50.786;7.058;2023-05-23T08:53:08;101468.25;;;16.25;76.34
67109;BME280;54027;50.786;7.058;2023-05-23T08:55:36;101464.66;;;16.31;76.21
67109;BME280;54027;50.786;7.058;2023-05-23T08:58:02;101467.22;;;16.34;75.53
67109;BME280;54027;50.786;7.058;2023-05-23T09:00:28;101462.75;;;16.39;75.54
67109;BME280;54027;50.786;7.058;2023-05-23T09:02:54;101475.91;;;16.33;75.68
67109;BME280;54027;50.786;7.058;2023-05-23T09:05:20;101489.88;;;16.32;76.42
67109;BME280;54027;50.786;7.058;2023-05-23T09:07:46;101479.56;;;16.24;76.35
67109;BME280;54027;50.786;7.058;2023-05-23T09:10:13;101477.94;;;16.20;76.16
67109;BME280;54027;50.786;7.058;2023-05-23T09:12:41;101493.72;;;16.14;77.43
67109;BME280;54027;50.786;7.058;2023-05-23T09:15:08;101496.38;;;16.10;77.95
67109;BME280;54027;50.786;7.058;2023-05-23T09:17:35;101498.25;;;16.03;78.68
67109;BME280;54027;50.786;7.058;2023-05-23T09:20:03;101511.38;;;15.99;78.86
67109;BME280;54027;50.786;7.058;2023-05-23T09:22:29;101497.59;;;15.92;78.91
67109;BME280;54027;50.786;7.058;2023-05-23T09:24:55;101507.28;;;15.86;79.17
67109;BME280;54027;50.786;7.058;2023-05-23T09:27:22;101510.91;;;15.77;80.76
67109;BME280;54027;50.786;7.058;2023-05-23T09:29:48;101517.16;;;15.68;81.80
67109;BME280;54027;50.786;7.058;2023-05-23T09:32:15;101514.72;;;15.56;81.89
67109;BME280;54027;50.786;7.058;2023-05-23T09:34:57;101517.38;;;15.53;81.95
67109;BME280;54027;50.786;7.058;2023-05-23T09:37:37;101517.25;;;15.62;80.85
67109;BME280;54027;50.786;7.058;2023-05-23T09:40:11;101513.53;;;15.77;79.79
67109;BME280;54027;50.786;7.058;2023-05-23T09:42:47;101509.81;;;15.90;78.79
67109;BME280;54027;50.786;7.058;2023-05-23T09:45:13;101500.97;;;15.97;77.99
67109;BME280;54027;50.786;7.058;2023-05-23T09:47:48;101510.38;;;16.06;78.54
67109;BME280;54027;50.786;7.058;2023-05-23T09:50:14;101504.97;;;16.16;78.50
67109;BME280;54027;50.786;7.058;2023-05-23T09:52:39;101501.47;;;16.17;78.20
67109;BME280;54027;50.786;7.058;2023-05-23T09:55:05;101510.13;;;16.19;78.10
67109;BME280;54027;50.786;7.058;2023-05-23T09:57:33;101518.03;;;16.15;78.00
67109;BME280;54027;50.786;7.058;2023-05-23T10:00:00;101513.97;;;16.00;78.76
67109;BME280;54027;50.786;7.058;2023-05-23T10:05:08;101525.72;;;15.75;79.70
67109;BME280;54027;50.786;7.058;2023-05-23T10:07:39;101534.66;;;15.59;80.23
67109;BME280;54027;50.786;7.058;2023-05-23T10:10:06;101537.34;;;15.53;80.53
67109;BME280;54027;50.786;7.058;2023-05-23T10:12:40;101537.41;;;15.50;80.62
67109;BME280;54027;50.786;7.058;2023-05-23T10:15:08;101533.88;;;15.52;79.99
67109;BME280;54027;50.786;7.058;2023-05-23T10:18:01;101540.78;;;15.56;80.48
67109;BME280;54027;50.786;7.058;2023-05-23T10:20:29;101545.13;;;15.57;79.87
67109;BME280;54027;50.786;7.058;2023-05-23T10:23:01;101539.03;;;15.55;80.38
67109;BME280;54027;50.786;7.058;2023-05-23T10:25:29;101540.88;;;15.52;80.31
67109;BME280;54027;50.786;7.058;2023-05-23T10:27:57;101545.41;;;15.39;80.21
67109;BME280;54027;50.786;7.058;2023-05-23T10:30:26;101551.59;;;15.32;80.98
67109;BME280;54027;50.786;7.058;2023-05-23T10:32:53;101553.31;;;15.33;80.91
67109;BME280;54027;50.786;7.058;2023-05-23T10:35:40;101560.25;;;15.34;80.72
67109;BME280;54027;50.786;7.058;2023-05-23T10:38:17;101548.06;;;15.36;79.99
67109;BME280;54027;50.786;7.058;2023-05-23T10:43:35;101550.34;;;15.56;79.59
67109;BME280;54027;50.786;7.058;2023-05-23T10:46:08;101548.44;;;15.68;78.72
67109;BME280;54027;50.786;7.058;2023-05-23T10:48:34;101548.22;;;15.79;77.52
67109;BME280;54027;50.786;7.058;2023-05-23T10:51:06;101553.63;;;15.68;77.87
67109;BME280;54027;50.786;7.058;2023-05-23T10:53:37;101541.44;;;15.70;77.94
67109;BME280;54027;50.786;7.058;2023-05-23T10:56:10;101540.25;;;15.90;77.37
67109;BME280;54027;50.786;7.058;2023-05-23T10:58:38;101526.47;;;16.27;75.00
67109;BME280;54027;50.786;7.058;2023-05-23T11:01:14;101521.31;;;16.67;73.44
67109;BME280;54027;50.786;7.058;2023-05-23T11:09:10;101492.56;;;17.42;69.26
67109;BME280;54027;50.786;7.058;2023-05-23T11:14:13;101440.59;;;18.27;65.19
67109;BME280;54027;50.786;7.058;2023-05-23T11:16:40;101425.66;;;18.60;63.45
67109;BME280;54027;50.786;7.058;2023-05-23T11:21:44;101437.03;;;18.59;63.11
67109;BME280;54027;50.786;7.058;2023-05-23T11:24:10;101438.84;;;18.57;62.23
67109;BME280;54027;50.786;7.058;2023-05-23T11:26:36;101451.53;;;18.41;62.64
67109;BME280;54027;50.786;7.058;2023-05-23T11:29:02;101437.72;;;18.64;61.85
67109;BME280;54027;50.786;7.058;2023-05-23T11:31:28;101453.91;;;18.78;62.12
67109;BME280;54027;50.786;7.058;2023-05-23T11:33:54;101490.00;;;18.38;62.78
67109;BME280;54027;50.786;7.058;2023-05-23T11:36:20;101514.88;;;17.92;63.94
67109;BME280;54027;50.786;7.058;2023-05-23T11:38:48;101517.38;;;17.62;64.93
67109;BME280;54027;50.786;7.058;2023-05-23T11:41:14;101516.19;;;17.73;64.48
67109;BME280;54027;50.786;7.058;2023-05-23T11:43:49;101510.41;;;17.61;64.36
67109;BME280;54027;50.786;7.058;2023-05-23T11:46:15;101507.22;;;17.83;63.92
67109;BME280;54027;50.786;7.058;2023-05-23T11:48:47;101494.16;;;17.83;63.35
67109;BME280;54027;50.786;7.058;2023-05-23T11:51:14;101492.66;;;17.73;63.66
67109;BME280;54027;50.786;7.058;2023-05-23T11:53:40;101499.03;;;17.97;63.06
67109;BME280;54027;50.786;7.058;2023-05-23T11:56:05;101525.88;;;17.34;64.01
67109;BME280;54027;50.786;7.058;2023-05-23T11:58:38;101521.47;;;17.36;64.18
67109;BME280;54027;50.786;7.058;2023-05-23T12:01:04;101536.09;;;17.08;64.58
67109;BME280;54027;50.786;7.058;2023-05-23T12:03:30;101538.38;;;17.22;64.68
67109;BME280;54027;50.786;7.058;2023-05-23T12:05:57;101527.63;;;17.34;64.16
67109;BME280;54027;50.786;7.058;2023-05-23T12:08:23;101518.03;;;17.34;64.11
67109;BME280;54027;50.786;7.058;2023-05-23T12:10:56;101521.31;;;17.42;63.78
67109;BME280;54027;50.786;7.058;2023-05-23T12:13:28;101516.56;;;17.24;63.66
67109;BME280;54027;50.786;7.058;2023-05-23T12:15:59;101513.69;;;17.35;63.28
67109;BME280;54027;50.786;7.058;2023-05-23T12:18:30;101455.59;;;18.22;60.43
67109;BME280;54027;50.786;7.058;2023-05-23T12:21:03;101444.13;;;18.26;58.82
67109;BME280;54027;50.786;7.058;2023-05-23T12:23:30;101421.75;;;18.45;57.64
67109;BME280;54027;50.786;7.058;2023-05-23T12:25:57;101417.00;;;18.86;57.41
67109;BME280;54027;50.786;7.058;2023-05-23T12:28:39;101386.50;;;19.11;55.27
67109;BME280;54027;50.786;7.058;2023-05-23T12:31:31;101403.75;;;18.63;55.73
67109;BME280;54027;50.786;7.058;2023-05-23T12:33:56;101401.44;;;18.80;55.33
67109;BME280;54027;50.786;7.058;2023-05-23T12:36:25;101416.34;;;18.50;56.16
67109;BME280;54027;50.786;7.058;2023-05-23T12:39:01;101432.41;;;18.96;57.04
67109;BME280;54027;50.786;7.058;2023-05-23T12:41:27;101370.59;;;18.89;54.33
67109;BME280;54027;50.786;7.058;2023-05-23T12:43:54;101418.72;;;18.87;55.88
67109;BME280;54027;50.786;7.058;2023-05-23T12:46:23;101412.13;;;19.01;55.33
67109;BME280;54027;50.786;7.058;2023-05-23T12:48:49;101447.88;;;18.18;56.87
67109;BME280;54027;50.786;7.058;2023-05-23T12:51:15;101475.00;;;17.81;58.34
67109;BME280;54027;50.786;7.058;2023-05-23T12:53:41;101497.19;;;17.67;59.28
67109;BME280;54027;50.786;7.058;2023-05-23T12:56:07;101506.63;;;17.38;59.69
67109;BME280;54027;50.786;7.058;2023-05-23T12:58:33;101515.59;;;17.28;60.50
67109;BME280;54027;50.786;7.058;2023-05-23T13:01:00;101527.03;;;17.23;61.24
67109;BME280;54027;50.786;7.058;2023-05-23T13:03:27;101531.09;;;17.36;60.97
67109;BME280;54027;50.786;7.058;2023-05-23T13:05:53;101495.66;;;17.24;59.48
67109;BME280;54027;50.786;7.058;2023-05-23T13:08:19;101505.25;;;17.24;60.18
67109;BME280;54027;50.786;7.058;2023-05-23T13:10:45;101506.59;;;17.40;60.08